sensor_id;sensor_type;location;lat;lon;timestamp;P1;durP1;ratioP1;P2;durP2;ratioP2
5135;SDS011;2586;48.710;9.202;2022-09-06T00:00:24;4.43;;;3.70;;
5135;SDS011;2586;48.710;9.202;2022-09-06T00:02:50;3.70;;;3.37;;
5135;SDS011;2586;48.710;9.202;2022-09-06T00:05:16;14.47;;;4.17;;
5135;SDS011;2586;48.710;9.202;2022-09-06T00:07:42;3.30;;;3.00;;
5135;SDS011;2586;48.710;9.202;2022-09-06T00:10:08;3.57;;;3.37;;
5135;SDS011;2586;48.710;9.202;2022-09-06T00:12:34;7.60;;;3.10;;
5135;SDS011;2586;48.710;9.202;2022-09-06T00:15:00;2.90;;;2.70;;
5135;SDS011;2586;48.710;9.202;2022-09-06T00:17:26;4.50;;;4.10;;
5135;SDS011;2586;48.710;9.202;2022-09-06T00:19:52;3.70;;;3.23;;
5135;SDS011;2586;48.710;9.202;2022-09-06T00:22:17;3.97;;;2.90;;
5135;SDS011;2586;48.710;9.202;2022-09-06T00:24:43;9.53;;;3.87;;
5135;SDS011;2586;48.710;9.202;2022-09-06T00:27:09;7.17;;;3.53;;
5135;SDS011;2586;48.710;9.202;2022-09-06T00:29:34;3.17;;;2.97;;
5135;SDS011;2586;48.710;9.202;2022-09-06T00:32:00;4.80;;;2.77;;
5135;SDS011;2586;48.710;9.202;2022-09-06T00:34:26;7.27;;;3.53;;
5135;SDS011;2586;48.710;9.202;2022-09-06T00:36:52;7.77;;;3.70;;
5135;SDS011;2586;48.710;9.202;2022-09-06T00:39:18;8.03;;;3.27;;
5135;SDS011;2586;48.710;9.202;2022-09-06T00:41:44;5.73;;;3.40;;
5135;SDS011;2586;48.710;9.202;2022-09-06T00:44:09;8.13;;;4.40;;
5135;SDS011;2586;48.710;9.202;2022-09-06T00:46:35;3.50;;;3.10;;
5135;SDS011;2586;48.710;9.202;2022-09-06T00:49:08;5.93;;;3.50;;
5135;SDS011;2586;48.710;9.202;2022-09-06T00:51:38;8.83;;;3.87;;
5135;SDS011;2586;48.710;9.202;2022-09-06T00:54:05;14.57;;;3.40;;
5135;SDS011;2586;48.710;9.202;2022-09-06T00:56:33;4.23;;;3.83;;
5135;SDS011;2586;48.710;9.202;2022-09-06T00:59:02;4.93;;;4.27;;
5135;SDS011;2586;48.710;9.202;2022-09-06T01:01:28;4.93;;;2.97;;
5135;SDS011;2586;48.710;9.202;2022-09-06T01:03:54;5.67;;;3.57;;
5135;SDS011;2586;48.710;9.202;2022-09-06T01:06:21;9.77;;;3.87;;
5135;SDS011;2586;48.710;9.202;2022-09-06T01:18:06;4.43;;;4.00;;
5135;SDS011;2586;48.710;9.202;2022-09-06T01:20:40;4.33;;;3.97;;
5135;SDS011;2586;48.710;9.202;2022-09-06T01:26:19;6.10;;;3.60;;
5135;SDS011;2586;48.710;9.202;2022-09-06T01:28:48;3.93;;;3.50;;
5135;SDS011;2586;48.710;9.202;2022-09-06T01:31:25;4.17;;;3.87;;
5135;SDS011;2586;48.710;9.202;2022-09-06T01:36:38;5.17;;;4.10;;
5135;SDS011;2586;48.710;9.202;2022-09-06T01:39:10;5.53;;;2.93;;
5135;SDS011;2586;48.710;9.202;2022-09-06T01:41:49;7.63;;;4.10;;
5135;SDS011;2586;48.710;9.202;2022-09-06T01:44:15;3.80;;;3.40;;
5135;SDS011;2586;48.710;9.202;2022-09-06T01:46:44;3.70;;;3.50;;
5135;SDS011;2586;48.710;9.202;2022-09-06T01:58:19;4.03;;;3.50;;
5135;SDS011;2586;48.710;9.202;2022-09-06T02:03:58;4.50;;;4.10;;
5135;SDS011;2586;48.710;9.202;2022-09-06T02:06:34;3.30;;;3.00;;
5135;SDS011;2586;48.710;9.202;2022-09-06T02:09:10;4.23;;;3.83;;
5135;SDS011;2586;48.710;9.202;2022-09-06T02:11:44;4.13;;;3.83;;
5135;SDS011;2586;48.710;9.202;2022-09-06T02:14:38;4.50;;;3.13;;
5135;SDS011;2586;48.710;9.202;2022-09-06T02:17:12;7.23;;;3.67;;
5135;SDS011;2586;48.710;9.202;2022-09-06T02:22:13;4.73;;;3.80;;
5135;SDS011;2586;48.710;9.202;2022-09-06T02:24:43;5.93;;;3.13;;
5135;SDS011;2586;48.710;9.202;2022-09-06T02:27:10;10.53;;;4.80;;
5135;SDS011;2586;48.710;9.202;2022-09-06T02:29:38;7.90;;;4.90;;
5135;SDS011;2586;48.710;9.202;2022-09-06T02:34:40;5.20;;;3.60;;
5135;SDS011;2586;48.710;9.202;2022-09-06T02:37:07;8.90;;;3.43;;
5135;SDS011;2586;48.710;9.202;2022-09-06T02:39:33;7.10;;;3.60;;
5135;SDS011;2586;48.710;9.202;2022-09-06T02:41:58;5.90;;;4.10;;
5135;SDS011;2586;48.710;9.202;2022-09-06T02:44:25;3.07;;;2.80;;
5135;SDS011;2586;48.710;9.202;2022-09-06T02:46:51;2.90;;;2.70;;
5135;SDS011;2586;48.710;9.202;2022-09-06T02:49:16;5.20;;;3.13;;
5135;SDS011;2586;48.710;9.202;2022-09-06T02:51:42;3.43;;;3.20;;
5135;SDS011;2586;48.710;9.202;2022-09-06T02:54:08;6.83;;;3.27;;
5135;SDS011;2586;48.710;9.202;2022-09-06T02:56:33;9.47;;;3.00;;
5135;SDS011;2586;48.710;9.202;2022-09-06T02:59:00;2.77;;;2.57;;
5135;SDS011;2586;48.710;9.202;2022-09-06T03:01:28;13.73;;;3.80;;
5135;SDS011;2586;48.710;9.202;2022-09-06T03:03:53;25.73;;;4.80;;
5135;SDS011;2586;48.710;9.202;2022-09-06T03:06:19;13.83;;;4.63;;
5135;SDS011;2586;48.710;9.202;2022-09-06T03:08:45;13.50;;;4.87;;
5135;SDS011;2586;48.710;9.202;2022-09-06T03:11:11;5.87;;;3.93;;
5135;SDS011;2586;48.710;9.202;2022-09-06T03:13:37;6.90;;;4.90;;
5135;SDS011;2586;48.710;9.202;2022-09-06T03:16:02;10.20;;;3.10;;
5135;SDS011;2586;48.710;9.202;2022-09-06T03:18:28;6.07;;;4.03;;
5135;SDS011;2586;48.710;9.202;2022-09-06T03:20:55;21.80;;;4.20;;
5135;SDS011;2586;48.710;9.202;2022-09-06T03:23:22;7.63;;;4.50;;
5135;SDS011;2586;48.710;9.202;2022-09-06T03:25:49;4.50;;;4.00;;
5135;SDS011;2586;48.710;9.202;2022-09-06T03:28:15;4.53;;;4.13;;
5135;SDS011;2586;48.710;9.202;2022-09-06T03:30:43;7.47;;;4.80;;
5135;SDS011;2586;48.710;9.202;2022-09-06T03:33:10;6.60;;;4.43;;
5135;SDS011;2586;48.710;9.202;2022-09-06T03:35:35;10.87;;;5.00;;
5135;SDS011;2586;48.710;9.202;2022-09-06T03:38:01;5.10;;;4.67;;
5135;SDS011;2586;48.710;9.202;2022-09-06T03:40:27;10.97;;;4.83;;
5135;SDS011;2586;48.710;9.202;2022-09-06T03:42:52;10.97;;;5.20;;
5135;SDS011;2586;48.710;9.202;2022-09-06T03:45:18;15.50;;;5.40;;
5135;SDS011;2586;48.710;9.202;2022-09-06T03:47:43;7.83;;;4.80;;
5135;SDS011;2586;48.710;9.202;2022-09-06T03:50:09;6.03;;;5.17;;
5135;SDS011;2586;48.710;9.202;2022-09-06T03:52:35;8.57;;;4.47;;
5135;SDS011;2586;48.710;9.202;2022-09-06T03:55:00;23.37;;;4.47;;
5135;SDS011;2586;48.710;9.202;2022-09-06T03:57:27;12.30;;;5.20;;
5135;SDS011;2586;48.710;9.202;2022-09-06T03:59:53;8.07;;;5.13;;
5135;SDS011;2586;48.710;9.202;2022-09-06T04:02:18;5.13;;;4.50;;
5135;SDS011;2586;48.710;9.202;2022-09-06T04:04:44;16.43;;;4.50;;
5135;SDS011;2586;48.710;9.202;2022-09-06T04:07:10;12.53;;;4.90;;
5135;SDS011;2586;48.710;9.202;2022-09-06T04:09:36;5.77;;;4.70;;
5135;SDS011;2586;48.710;9.202;2022-09-06T04:12:02;9.93;;;5.00;;
5135;SDS011;2586;48.710;9.202;2022-09-06T04:14:28;4.90;;;4.60;;
5135;SDS011;2586;48.710;9.202;2022-09-06T04:16:53;5.87;;;4.73;;
5135;SDS011;2586;48.710;9.202;2022-09-06T04:19:19;6.17;;;4.60;;
5135;SDS011;2586;48.710;9.202;2022-09-06T04:21:45;5.97;;;4.43;;
5135;SDS011;2586;48.710;9.202;2022-09-06T04:24:10;5.50;;;5.10;;
5135;SDS011;2586;48.710;9.202;2022-09-06T04:26:36;5.67;;;4.97;;
5135;SDS011;2586;48.710;9.202;2022-09-06T04:29:02;5.30;;;4.80;;
5135;SDS011;2586;48.710;9.202;2022-09-06T04:31:28;8.10;;;4.60;;
5135;SDS011;2586;48.710;9.202;2022-09-06T04:33:53;8.83;;;5.43;;
5135;SDS011;2586;48.710;9.202;2022-09-06T04:36:19;7.07;;;4.63;;
5135;SDS011;2586;48.710;9.202;2022-09-06T04:38:45;6.30;;;5.70;;
5135;SDS011;2586;48.710;9.202;2022-09-06T04:41:11;5.80;;;4.80;;
5135;SDS011;2586;48.710;9.202;2022-09-06T04:43:39;5.73;;;5.17;;
5135;SDS011;2586;48.710;9.202;2022-09-06T04:46:06;8.83;;;5.33;;
5135;SDS011;2586;48.710;9.202;2022-09-06T04:48:33;7.47;;;5.67;;
5135;SDS011;2586;48.710;9.202;2022-09-06T04:50:59;5.57;;;5.17;;
5135;SDS011;2586;48.710;9.202;2022-09-06T04:53:24;11.67;;;6.03;;
5135;SDS011;2586;48.710;9.202;2022-09-06T04:55:50;12.50;;;7.83;;
5135;SDS011;2586;48.710;9.202;2022-09-06T04:58:16;8.40;;;5.20;;
5135;SDS011;2586;48.710;9.202;2022-09-06T05:00:44;6.50;;;5.10;;
5135;SDS011;2586;48.710;9.202;2022-09-06T05:03:09;10.57;;;5.07;;
5135;SDS011;2586;48.710;9.202;2022-09-06T05:05:35;13.73;;;6.33;;
5135;SDS011;2586;48.710;9.202;2022-09-06T05:08:00;6.73;;;5.50;;
5135;SDS011;2586;48.710;9.202;2022-09-06T05:10:26;8.50;;;6.13;;
5135;SDS011;2586;48.710;9.202;2022-09-06T05:12:52;6.43;;;5.27;;
5135;SDS011;2586;48.710;9.202;2022-09-06T05:15:19;6.20;;;4.80;;
5135;SDS011;2586;48.710;9.202;2022-09-06T05:17:46;15.27;;;5.90;;
5135;SDS011;2586;48.710;9.202;2022-09-06T05:20:12;8.63;;;5.27;;
5135;SDS011;2586;48.710;9.202;2022-09-06T05:22:39;8.40;;;5.10;;
5135;SDS011;2586;48.710;9.202;2022-09-06T05:25:05;8.13;;;5.93;;
5135;SDS011;2586;48.710;9.202;2022-09-06T05:27:32;9.93;;;4.83;;
5135;SDS011;2586;48.710;9.202;2022-09-06T05:29:57;11.90;;;6.33;;
5135;SDS011;2586;48.710;9.202;2022-09-06T05:32:23;8.80;;;5.67;;
5135;SDS011;2586;48.710;9.202;2022-09-06T05:34:48;12.37;;;5.83;;
5135;SDS011;2586;48.710;9.202;2022-09-06T05:37:14;11.43;;;5.80;;
5135;SDS011;2586;48.710;9.202;2022-09-06T05:39:39;8.43;;;5.83;;
5135;SDS011;2586;48.710;9.202;2022-09-06T05:42:05;7.30;;;5.57;;
5135;SDS011;2586;48.710;9.202;2022-09-06T05:44:32;5.97;;;5.10;;
5135;SDS011;2586;48.710;9.202;2022-09-06T05:46:58;7.77;;;5.43;;
5135;SDS011;2586;48.710;9.202;2022-09-06T05:49:23;8.10;;;5.10;;
5135;SDS011;2586;48.710;9.202;2022-09-06T05:51:50;5.97;;;4.90;;
5135;SDS011;2586;48.710;9.202;2022-09-06T05:54:16;11.23;;;5.87;;
5135;SDS011;2586;48.710;9.202;2022-09-06T05:56:41;6.17;;;4.77;;
5135;SDS011;2586;48.710;9.202;2022-09-06T05:59:07;10.40;;;6.47;;
5135;SDS011;2586;48.710;9.202;2022-09-06T06:01:33;8.63;;;5.47;;
5135;SDS011;2586;48.710;9.202;2022-09-06T06:04:02;5.87;;;5.17;;
5135;SDS011;2586;48.710;9.202;2022-09-06T06:06:29;12.50;;;5.70;;
5135;SDS011;2586;48.710;9.202;2022-09-06T06:08:56;6.33;;;5.70;;
5135;SDS011;2586;48.710;9.202;2022-09-06T06:11:22;7.53;;;5.83;;
5135;SDS011;2586;48.710;9.202;2022-09-06T06:13:49;6.57;;;5.53;;
5135;SDS011;2586;48.710;9.202;2022-09-06T06:16:16;6.23;;;5.63;;
5135;SDS011;2586;48.710;9.202;2022-09-06T06:18:43;8.33;;;6.10;;
5135;SDS011;2586;48.710;9.202;2022-09-06T06:23:43;11.03;;;6.07;;
5135;SDS011;2586;48.710;9.202;2022-09-06T06:26:10;12.13;;;6.67;;
5135;SDS011;2586;48.710;9.202;2022-09-06T06:28:37;7.27;;;5.10;;
5135;SDS011;2586;48.710;9.202;2022-09-06T06:31:03;10.63;;;6.10;;
5135;SDS011;2586;48.710;9.202;2022-09-06T06:33:30;6.47;;;5.73;;
5135;SDS011;2586;48.710;9.202;2022-09-06T06:36:38;10.60;;;5.97;;
5135;SDS011;2586;48.710;9.202;2022-09-06T06:38:46;8.00;;;6.80;;
5135;SDS011;2586;48.710;9.202;2022-09-06T06:41:14;11.43;;;6.87;;
5135;SDS011;2586;48.710;9.202;2022-09-06T06:43:42;8.27;;;6.33;;
5135;SDS011;2586;48.710;9.202;2022-09-06T06:46:15;7.00;;;6.10;;
5135;SDS011;2586;48.710;9.202;2022-09-06T06:48:42;8.87;;;6.53;;
5135;SDS011;2586;48.710;9.202;2022-09-06T06:51:12;9.23;;;6.47;;
5135;SDS011;2586;48.710;9.202;2022-09-06T06:53:44;14.10;;;6.73;;
5135;SDS011;2586;48.710;9.202;2022-09-06T06:58:39;14.47;;;6.90;;
5135;SDS011;2586;48.710;9.202;2022-09-06T07:01:05;16.60;;;6.87;;
5135;SDS011;2586;48.710;9.202;2022-09-06T07:03:30;11.00;;;6.97;;
5135;SDS011;2586;48.710;9.202;2022-09-06T07:05:56;9.77;;;6.83;;
5135;SDS011;2586;48.710;9.202;2022-09-06T07:08:21;8.47;;;5.90;;
5135;SDS011;2586;48.710;9.202;2022-09-06T07:10:47;9.03;;;5.70;;
5135;SDS011;2586;48.710;9.202;2022-09-06T07:13:13;9.00;;;6.17;;
5135;SDS011;2586;48.710;9.202;2022-09-06T07:15:38;13.00;;;6.40;;
5135;SDS011;2586;48.710;9.202;2022-09-06T07:18:04;10.73;;;4.80;;
5135;SDS011;2586;48.710;9.202;2022-09-06T07:20:29;9.67;;;6.13;;
5135;SDS011;2586;48.710;9.202;2022-09-06T07:22:59;17.17;;;5.90;;
5135;SDS011;2586;48.710;9.202;2022-09-06T07:25:26;8.80;;;5.40;;
5135;SDS011;2586;48.710;9.202;2022-09-06T07:27:58;11.40;;;4.53;;
5135;SDS011;2586;48.710;9.202;2022-09-06T07:30:29;16.00;;;6.03;;
5135;SDS011;2586;48.710;9.202;2022-09-06T07:32:55;17.60;;;4.80;;
5135;SDS011;2586;48.710;9.202;2022-09-06T07:35:23;7.63;;;4.70;;
5135;SDS011;2586;48.710;9.202;2022-09-06T07:37:52;9.50;;;5.27;;
5135;SDS011;2586;48.710;9.202;2022-09-06T07:40:19;7.70;;;4.57;;
5135;SDS011;2586;48.710;9.202;2022-09-06T07:42:44;7.47;;;3.90;;
5135;SDS011;2586;48.710;9.202;2022-09-06T07:45:10;7.40;;;3.63;;
5135;SDS011;2586;48.710;9.202;2022-09-06T07:47:36;5.40;;;3.90;;
5135;SDS011;2586;48.710;9.202;2022-09-06T07:50:02;7.83;;;3.33;;
5135;SDS011;2586;48.710;9.202;2022-09-06T07:52:28;4.77;;;2.90;;
5135;SDS011;2586;48.710;9.202;2022-09-06T07:54:53;14.63;;;3.33;;
5135;SDS011;2586;48.710;9.202;2022-09-06T07:57:20;11.57;;;3.00;;
5135;SDS011;2586;48.710;9.202;2022-09-06T07:59:47;7.30;;;3.30;;
5135;SDS011;2586;48.710;9.202;2022-09-06T08:02:13;8.60;;;3.67;;
5135;SDS011;2586;48.710;9.202;2022-09-06T08:04:39;18.60;;;3.13;;
5135;SDS011;2586;48.710;9.202;2022-09-06T08:07:06;4.60;;;2.90;;
5135;SDS011;2586;48.710;9.202;2022-09-06T08:09:32;4.30;;;3.17;;
5135;SDS011;2586;48.710;9.202;2022-09-06T08:11:58;3.50;;;2.97;;
5135;SDS011;2586;48.710;9.202;2022-09-06T08:14:30;6.40;;;2.80;;
5135;SDS011;2586;48.710;9.202;2022-09-06T08:16:58;18.70;;;3.20;;
5135;SDS011;2586;48.710;9.202;2022-09-06T08:19:24;8.93;;;3.33;;
5135;SDS011;2586;48.710;9.202;2022-09-06T08:21:51;4.80;;;3.17;;
5135;SDS011;2586;48.710;9.202;2022-09-06T08:24:19;4.50;;;2.67;;
5135;SDS011;2586;48.710;9.202;2022-09-06T08:26:44;5.67;;;3.53;;
5135;SDS011;2586;48.710;9.202;2022-09-06T08:29:10;4.93;;;2.67;;
5135;SDS011;2586;48.710;9.202;2022-09-06T08:31:37;4.73;;;2.30;;
5135;SDS011;2586;48.710;9.202;2022-09-06T08:34:05;9.40;;;3.13;;
5135;SDS011;2586;48.710;9.202;2022-09-06T08:36:31;3.00;;;2.63;;
5135;SDS011;2586;48.710;9.202;2022-09-06T08:39:02;5.33;;;2.73;;
5135;SDS011;2586;48.710;9.202;2022-09-06T08:44:09;4.90;;;3.00;;
5135;SDS011;2586;48.710;9.202;2022-09-06T08:49:28;11.73;;;3.10;;
5135;SDS011;2586;48.710;9.202;2022-09-06T08:54:38;4.43;;;2.37;;
5135;SDS011;2586;48.710;9.202;2022-09-06T08:57:13;7.87;;;3.43;;
5135;SDS011;2586;48.710;9.202;2022-09-06T08:59:39;5.63;;;3.10;;
5135;SDS011;2586;48.710;9.202;2022-09-06T09:02:16;3.33;;;2.70;;
5135;SDS011;2586;48.710;9.202;2022-09-06T09:04:46;11.97;;;3.70;;
5135;SDS011;2586;48.710;9.202;2022-09-06T09:10:07;9.63;;;2.80;;
5135;SDS011;2586;48.710;9.202;2022-09-06T09:12:40;11.83;;;2.77;;
5135;SDS011;2586;48.710;9.202;2022-09-06T09:15:09;12.17;;;3.13;;
5135;SDS011;2586;48.710;9.202;2022-09-06T09:17:38;7.10;;;2.83;;
5135;SDS011;2586;48.710;9.202;2022-09-06T09:20:04;12.03;;;3.13;;
5135;SDS011;2586;48.710;9.202;2022-09-06T09:22:32;8.87;;;3.30;;
5135;SDS011;2586;48.710;9.202;2022-09-06T09:24:59;7.60;;;3.17;;
5135;SDS011;2586;48.710;9.202;2022-09-06T09:27:26;9.80;;;3.10;;
5135;SDS011;2586;48.710;9.202;2022-09-06T09:32:27;10.00;;;2.83;;
5135;SDS011;2586;48.710;9.202;2022-09-06T09:37:43;4.43;;;2.80;;
5135;SDS011;2586;48.710;9.202;2022-09-06T09:42:50;5.70;;;2.80;;
5135;SDS011;2586;48.710;9.202;2022-09-06T09:47:50;9.27;;;2.80;;
5135;SDS011;2586;48.710;9.202;2022-09-06T09:52:53;11.63;;;2.63;;
5135;SDS011;2586;48.710;9.202;2022-09-06T09:55:22;6.37;;;2.50;;
5135;SDS011;2586;48.710;9.202;2022-09-06T09:57:49;18.93;;;3.00;;
5135;SDS011;2586;48.710;9.202;2022-09-06T10:00:37;14.93;;;2.73;;
5135;SDS011;2586;48.710;9.202;2022-09-06T10:03:17;7.67;;;2.70;;
5135;SDS011;2586;48.710;9.202;2022-09-06T10:05:56;10.50;;;2.70;;
5135;SDS011;2586;48.710;9.202;2022-09-06T10:08:24;8.90;;;3.17;;
5135;SDS011;2586;48.710;9.202;2022-09-06T10:10:51;12.17;;;2.40;;
5135;SDS011;2586;48.710;9.202;2022-09-06T10:13:18;5.70;;;2.57;;
5135;SDS011;2586;48.710;9.202;2022-09-06T10:15:46;9.93;;;2.50;;
5135;SDS011;2586;48.710;9.202;2022-09-06T10:21:13;19.03;;;3.50;;
5135;SDS011;2586;48.710;9.202;2022-09-06T10:29:32;7.03;;;3.37;;
5135;SDS011;2586;48.710;9.202;2022-09-06T10:35:28;5.10;;;2.67;;
5135;SDS011;2586;48.710;9.202;2022-09-06T10:43:46;7.60;;;2.60;;
5135;SDS011;2586;48.710;9.202;2022-09-06T10:46:23;13.70;;;3.50;;
5135;SDS011;2586;48.710;9.202;2022-09-06T10:48:50;5.97;;;2.87;;
5135;SDS011;2586;48.710;9.202;2022-09-06T10:51:35;14.93;;;2.97;;
5135;SDS011;2586;48.710;9.202;2022-09-06T11:05:18;22.80;;;3.37;;
5135;SDS011;2586;48.710;9.202;2022-09-06T11:07:49;11.73;;;3.43;;
5135;SDS011;2586;48.710;9.202;2022-09-06T11:10:26;12.53;;;3.13;;
5135;SDS011;2586;48.710;9.202;2022-09-06T11:15:27;12.20;;;3.20;;
5135;SDS011;2586;48.710;9.202;2022-09-06T11:18:08;7.37;;;2.77;;
5135;SDS011;2586;48.710;9.202;2022-09-06T11:27:10;14.53;;;3.07;;
5135;SDS011;2586;48.710;9.202;2022-09-06T11:29:09;19.53;;;3.43;;
5135;SDS011;2586;48.710;9.202;2022-09-06T11:31:48;14.27;;;3.60;;
5135;SDS011;2586;48.710;9.202;2022-09-06T11:37:02;9.23;;;3.57;;
5135;SDS011;2586;48.710;9.202;2022-09-06T11:42:37;8.00;;;2.70;;
5135;SDS011;2586;48.710;9.202;2022-09-06T11:45:41;8.30;;;2.77;;
5135;SDS011;2586;48.710;9.202;2022-09-06T11:53:24;11.67;;;2.67;;
5135;SDS011;2586;48.710;9.202;2022-09-06T11:58:31;12.13;;;2.80;;
5135;SDS011;2586;48.710;9.202;2022-09-06T12:06:18;13.10;;;3.10;;
5135;SDS011;2586;48.710;9.202;2022-09-06T12:08:46;16.60;;;2.70;;
5135;SDS011;2586;48.710;9.202;2022-09-06T12:11:27;5.27;;;2.50;;
5135;SDS011;2586;48.710;9.202;2022-09-06T12:24:52;8.33;;;2.83;;
5135;SDS011;2586;48.710;9.202;2022-09-06T12:27:18;8.40;;;2.57;;
5135;SDS011;2586;48.710;9.202;2022-09-06T12:29:58;10.07;;;3.00;;
5135;SDS011;2586;48.710;9.202;2022-09-06T12:32:32;8.10;;;2.83;;
5135;SDS011;2586;48.710;9.202;2022-09-06T12:35:01;9.93;;;2.63;;
5135;SDS011;2586;48.710;9.202;2022-09-06T12:37:34;13.00;;;2.97;;
5135;SDS011;2586;48.710;9.202;2022-09-06T12:40:04;22.17;;;2.80;;
5135;SDS011;2586;48.710;9.202;2022-09-06T12:42:32;8.93;;;2.87;;
5135;SDS011;2586;48.710;9.202;2022-09-06T12:45:02;6.60;;;3.20;;
5135;SDS011;2586;48.710;9.202;2022-09-06T12:47:30;8.87;;;3.40;;
5135;SDS011;2586;48.710;9.202;2022-09-06T12:52:48;11.00;;;2.77;;
5135;SDS011;2586;48.710;9.202;2022-09-06T12:55:20;7.00;;;2.90;;
5135;SDS011;2586;48.710;9.202;2022-09-06T12:57:56;5.23;;;2.20;;
5135;SDS011;2586;48.710;9.202;2022-09-06T13:00:24;11.30;;;2.70;;
5135;SDS011;2586;48.710;9.202;2022-09-06T13:05:19;13.57;;;2.70;;
5135;SDS011;2586;48.710;9.202;2022-09-06T13:07:47;6.13;;;2.33;;
5135;SDS011;2586;48.710;9.202;2022-09-06T13:10:22;6.10;;;2.10;;
5135;SDS011;2586;48.710;9.202;2022-09-06T13:12:50;9.00;;;2.30;;
5135;SDS011;2586;48.710;9.202;2022-09-06T13:15:29;15.40;;;2.90;;
5135;SDS011;2586;48.710;9.202;2022-09-06T13:21:02;16.53;;;1.80;;
5135;SDS011;2586;48.710;9.202;2022-09-06T13:23:28;11.30;;;2.40;;
5135;SDS011;2586;48.710;9.202;2022-09-06T13:25:55;6.97;;;2.00;;
5135;SDS011;2586;48.710;9.202;2022-09-06T13:28:28;16.73;;;2.33;;
5135;SDS011;2586;48.710;9.202;2022-09-06T13:31:06;11.10;;;2.40;;
5135;SDS011;2586;48.710;9.202;2022-09-06T13:33:34;6.93;;;1.73;;
5135;SDS011;2586;48.710;9.202;2022-09-06T13:36:05;11.53;;;3.10;;
5135;SDS011;2586;48.710;9.202;2022-09-06T13:44:00;20.27;;;3.60;;
5135;SDS011;2586;48.710;9.202;2022-09-06T13:46:28;6.93;;;3.37;;
5135;SDS011;2586;48.710;9.202;2022-09-06T13:48:54;9.20;;;2.83;;
5135;SDS011;2586;48.710;9.202;2022-09-06T13:51:20;12.70;;;2.87;;
5135;SDS011;2586;48.710;9.202;2022-09-06T13:53:47;14.70;;;2.53;;
5135;SDS011;2586;48.710;9.202;2022-09-06T13:56:13;10.40;;;3.27;;
5135;SDS011;2586;48.710;9.202;2022-09-06T13:58:40;8.30;;;2.67;;
5135;SDS011;2586;48.710;9.202;2022-09-06T14:01:07;8.37;;;3.10;;
5135;SDS011;2586;48.710;9.202;2022-09-06T14:03:34;7.60;;;3.10;;
5135;SDS011;2586;48.710;9.202;2022-09-06T14:06:01;10.30;;;3.37;;
5135;SDS011;2586;48.710;9.202;2022-09-06T14:08:27;5.13;;;2.60;;
5135;SDS011;2586;48.710;9.202;2022-09-06T14:10:53;8.07;;;3.20;;
5135;SDS011;2586;48.710;9.202;2022-09-06T14:13:19;13.50;;;2.70;;
5135;SDS011;2586;48.710;9.202;2022-09-06T14:15:45;6.50;;;2.57;;
5135;SDS011;2586;48.710;9.202;2022-09-06T14:18:11;7.03;;;3.27;;
5135;SDS011;2586;48.710;9.202;2022-09-06T14:20:37;8.73;;;2.90;;
5135;SDS011;2586;48.710;9.202;2022-09-06T14:23:04;7.93;;;2.63;;
5135;SDS011;2586;48.710;9.202;2022-09-06T14:25:33;15.00;;;3.30;;
5135;SDS011;2586;48.710;9.202;2022-09-06T14:28:00;8.70;;;4.20;;
5135;SDS011;2586;48.710;9.202;2022-09-06T14:30:29;10.90;;;3.20;;
5135;SDS011;2586;48.710;9.202;2022-09-06T14:32:55;5.93;;;3.10;;
5135;SDS011;2586;48.710;9.202;2022-09-06T14:35:21;11.33;;;2.90;;
5135;SDS011;2586;48.710;9.202;2022-09-06T14:37:46;3.13;;;2.20;;
5135;SDS011;2586;48.710;9.202;2022-09-06T14:40:13;5.27;;;3.10;;
5135;SDS011;2586;48.710;9.202;2022-09-06T14:42:39;3.37;;;2.63;;
5135;SDS011;2586;48.710;9.202;2022-09-06T14:45:05;14.03;;;3.00;;
5135;SDS011;2586;48.710;9.202;2022-09-06T14:47:31;7.67;;;2.97;;
5135;SDS011;2586;48.710;9.202;2022-09-06T14:49:57;8.03;;;2.90;;
5135;SDS011;2586;48.710;9.202;2022-09-06T14:52:23;7.60;;;3.00;;
5135;SDS011;2586;48.710;9.202;2022-09-06T14:54:49;7.73;;;2.80;;
5135;SDS011;2586;48.710;9.202;2022-09-06T14:57:14;8.30;;;2.87;;
5135;SDS011;2586;48.710;9.202;2022-09-06T14:59:40;6.77;;;2.70;;
5135;SDS011;2586;48.710;9.202;2022-09-06T15:02:06;9.23;;;2.47;;
5135;SDS011;2586;48.710;9.202;2022-09-06T15:04:31;12.30;;;2.60;;
5135;SDS011;2586;48.710;9.202;2022-09-06T15:06:57;14.90;;;3.23;;
5135;SDS011;2586;48.710;9.202;2022-09-06T15:09:23;12.33;;;3.00;;
5135;SDS011;2586;48.710;9.202;2022-09-06T15:11:50;8.67;;;2.47;;
5135;SDS011;2586;48.710;9.202;2022-09-06T15:14:18;8.27;;;3.13;;
5135;SDS011;2586;48.710;9.202;2022-09-06T15:16:49;7.67;;;3.13;;
5135;SDS011;2586;48.710;9.202;2022-09-06T15:19:16;2.60;;;2.30;;
5135;SDS011;2586;48.710;9.202;2022-09-06T15:21:45;5.83;;;2.03;;
5135;SDS011;2586;48.710;9.202;2022-09-06T15:24:12;9.43;;;3.10;;
5135;SDS011;2586;48.710;9.202;2022-09-06T15:26:39;5.80;;;2.60;;
5135;SDS011;2586;48.710;9.202;2022-09-06T15:29:07;5.87;;;2.10;;
5135;SDS011;2586;48.710;9.202;2022-09-06T15:31:33;7.77;;;2.73;;
5135;SDS011;2586;48.710;9.202;2022-09-06T15:34:00;9.57;;;2.70;;
5135;SDS011;2586;48.710;9.202;2022-09-06T15:36:27;6.73;;;2.50;;
5135;SDS011;2586;48.710;9.202;2022-09-06T15:38:53;6.27;;;2.70;;
5135;SDS011;2586;48.710;9.202;2022-09-06T15:41:22;5.30;;;2.47;;
5135;SDS011;2586;48.710;9.202;2022-09-06T15:43:50;8.23;;;2.47;;
5135;SDS011;2586;48.710;9.202;2022-09-06T15:46:18;9.40;;;2.37;;
5135;SDS011;2586;48.710;9.202;2022-09-06T15:48:56;6.70;;;2.83;;
5135;SDS011;2586;48.710;9.202;2022-09-06T15:51:22;10.43;;;3.07;;
5135;SDS011;2586;48.710;9.202;2022-09-06T15:53:47;10.30;;;2.73;;
5135;SDS011;2586;48.710;9.202;2022-09-06T15:56:13;8.10;;;2.50;;
5135;SDS011;2586;48.710;9.202;2022-09-06T15:58:40;3.40;;;2.10;;
5135;SDS011;2586;48.710;9.202;2022-09-06T16:01:10;7.93;;;3.10;;
5135;SDS011;2586;48.710;9.202;2022-09-06T16:03:41;9.87;;;2.93;;
5135;SDS011;2586;48.710;9.202;2022-09-06T16:06:10;3.73;;;2.50;;
5135;SDS011;2586;48.710;9.202;2022-09-06T16:08:40;5.97;;;2.70;;
5135;SDS011;2586;48.710;9.202;2022-09-06T16:11:07;13.57;;;3.10;;
5135;SDS011;2586;48.710;9.202;2022-09-06T16:13:37;3.97;;;2.40;;
5135;SDS011;2586;48.710;9.202;2022-09-06T16:16:05;6.00;;;2.83;;
5135;SDS011;2586;48.710;9.202;2022-09-06T16:18:32;3.17;;;2.03;;
5135;SDS011;2586;48.710;9.202;2022-09-06T16:21:18;5.53;;;2.60;;
5135;SDS011;2586;48.710;9.202;2022-09-06T16:23:49;13.07;;;2.83;;
5135;SDS011;2586;48.710;9.202;2022-09-06T16:26:19;17.00;;;3.03;;
5135;SDS011;2586;48.710;9.202;2022-09-06T16:28:46;17.00;;;2.93;;
5135;SDS011;2586;48.710;9.202;2022-09-06T16:31:13;11.40;;;3.10;;
5135;SDS011;2586;48.710;9.202;2022-09-06T16:33:39;7.20;;;2.90;;
5135;SDS011;2586;48.710;9.202;2022-09-06T16:36:07;9.47;;;3.47;;
5135;SDS011;2586;48.710;9.202;2022-09-06T16:38:33;13.63;;;2.93;;
5135;SDS011;2586;48.710;9.202;2022-09-06T16:41:00;7.33;;;2.70;;
5135;SDS011;2586;48.710;9.202;2022-09-06T16:43:37;5.97;;;3.70;;
5135;SDS011;2586;48.710;9.202;2022-09-06T16:46:03;10.30;;;3.43;;
5135;SDS011;2586;48.710;9.202;2022-09-06T16:48:29;6.63;;;2.60;;
5135;SDS011;2586;48.710;9.202;2022-09-06T16:50:56;6.20;;;2.20;;
5135;SDS011;2586;48.710;9.202;2022-09-06T16:53:22;6.63;;;2.97;;
5135;SDS011;2586;48.710;9.202;2022-09-06T16:55:49;10.50;;;2.47;;
5135;SDS011;2586;48.710;9.202;2022-09-06T16:58:15;6.30;;;2.67;;
5135;SDS011;2586;48.710;9.202;2022-09-06T17:00:41;3.63;;;1.73;;
5135;SDS011;2586;48.710;9.202;2022-09-06T17:03:11;3.87;;;1.67;;
5135;SDS011;2586;48.710;9.202;2022-09-06T17:05:38;6.83;;;1.97;;
5135;SDS011;2586;48.710;9.202;2022-09-06T17:08:04;4.27;;;1.80;;
5135;SDS011;2586;48.710;9.202;2022-09-06T17:10:30;3.53;;;1.53;;
5135;SDS011;2586;48.710;9.202;2022-09-06T17:12:55;3.13;;;1.87;;
5135;SDS011;2586;48.710;9.202;2022-09-06T17:15:21;4.67;;;1.90;;
5135;SDS011;2586;48.710;9.202;2022-09-06T17:17:47;7.20;;;1.70;;
5135;SDS011;2586;48.710;9.202;2022-09-06T17:20:13;9.50;;;1.90;;
5135;SDS011;2586;48.710;9.202;2022-09-06T17:22:42;13.50;;;2.40;;
5135;SDS011;2586;48.710;9.202;2022-09-06T17:25:08;7.20;;;1.60;;
5135;SDS011;2586;48.710;9.202;2022-09-06T17:27:36;3.63;;;1.73;;
5135;SDS011;2586;48.710;9.202;2022-09-06T17:30:01;3.87;;;1.40;;
5135;SDS011;2586;48.710;9.202;2022-09-06T17:32:28;7.20;;;1.93;;
5135;SDS011;2586;48.710;9.202;2022-09-06T17:34:55;7.70;;;1.67;;
5135;SDS011;2586;48.710;9.202;2022-09-06T17:37:21;5.17;;;1.47;;
5135;SDS011;2586;48.710;9.202;2022-09-06T17:39:47;4.57;;;1.40;;